createdAt,value
2023-04-16T00:02:18.444Z,3.28
2023-04-16T00:05:21.213Z,3.50
2023-04-16T00:08:24.793Z,3.67
2023-04-16T00:11:27.377Z,4.57
2023-04-16T00:14:30.363Z,6.60
2023-04-16T00:17:32.779Z,7.00
2023-04-16T00:20:35.192Z,5.00
2023-04-16T00:23:38.053Z,4.80
2023-04-16T00:26:41.036Z,4.53
2023-04-16T00:29:43.680Z,5.28
2023-04-16T00:32:46.213Z,4.03
2023-04-16T00:35:49.032Z,4.20
2023-04-16T00:38:51.657Z,4.13
2023-04-16T00:41:54.019Z,3.75
2023-04-16T00:44:56.478Z,4.20
2023-04-16T00:48:00.673Z,4.13
2023-04-16T00:51:06.555Z,4.75
2023-04-16T00:54:08.937Z,5.93
2023-04-16T00:57:14.191Z,6.63
2023-04-16T01:00:17.129Z,6.32
2023-04-16T01:03:19.906Z,7.32
2023-04-16T01:06:23.476Z,6.20
2023-04-16T01:09:26.332Z,7.05
2023-04-16T01:12:29.106Z,6.72
2023-04-16T01:15:31.952Z,6.43
2023-04-16T01:18:34.896Z,7.45
2023-04-16T01:21:37.432Z,7.40
2023-04-16T01:24:40.556Z,7.43
2023-04-16T01:27:49.696Z,6.68
2023-04-16T01:30:52.186Z,5.90
2023-04-16T01:34:03.619Z,6.55
2023-04-16T01:37:06.256Z,5.87
2023-04-16T01:40:08.997Z,7.35
2023-04-16T01:43:11.431Z,7.25
2023-04-16T01:46:23.520Z,7.90
2023-04-16T01:49:26.111Z,6.60
2023-04-16T01:52:29.153Z,6.95
2023-04-16T01:55:35.615Z,6.97
2023-04-16T01:58:38.609Z,6.85
2023-04-16T02:01:42.111Z,6.57
2023-04-16T02:04:46.409Z,7.70
2023-04-16T02:07:49.071Z,8.00
2023-04-16T02:10:52.321Z,7.72
2023-04-16T02:13:54.820Z,7.28
2023-04-16T02:16:57.685Z,7.60
2023-04-16T02:20:12.730Z,6.60
2023-04-16T02:23:27.708Z,7.10
2023-04-16T02:26:31.074Z,5.20
2023-04-16T02:29:39.207Z,4.40
2023-04-16T02:32:49.749Z,4.70
2023-04-16T02:35:53.206Z,5.00
2023-04-16T02:38:55.726Z,4.43
2023-04-16T02:41:59.428Z,4.25
2023-04-16T02:45:02.447Z,4.25
2023-04-16T02:48:07.292Z,4.33
2023-04-16T02:51:09.713Z,5.50
2023-04-16T02:54:12.283Z,4.95
2023-04-16T02:57:14.638Z,4.30
2023-04-16T03:00:17.244Z,3.95
2023-04-16T03:03:20.551Z,6.18
2023-04-16T03:06:23.380Z,6.60
2023-04-16T03:09:25.856Z,6.17
2023-04-16T03:12:28.544Z,8.00
2023-04-16T03:15:31.678Z,6.45
2023-04-16T03:18:34.474Z,7.00
2023-04-16T03:21:36.877Z,7.55
2023-04-16T03:24:39.220Z,6.95
2023-04-16T03:27:41.749Z,7.80
2023-04-16T03:30:51.380Z,8.65
2023-04-16T03:33:53.894Z,7.82
2023-04-16T03:36:56.334Z,7.57
2023-04-16T03:39:58.929Z,8.17
2023-04-16T03:43:01.434Z,7.32
2023-04-16T03:46:04.646Z,7.20
2023-04-16T03:49:07.631Z,7.73
2023-04-16T03:52:11.449Z,6.22
2023-04-16T03:55:14.142Z,5.13
2023-04-16T03:58:17.426Z,5.28
2023-04-16T04:01:19.961Z,6.38
2023-04-16T04:04:23.525Z,6.28
2023-04-16T04:07:26.215Z,5.00
2023-04-16T04:10:28.886Z,5.70
2023-04-16T04:13:31.334Z,5.53
2023-04-16T04:16:34.791Z,5.72
2023-04-16T04:19:40.274Z,5.53
2023-04-16T04:22:45.417Z,7.00
2023-04-16T04:25:47.978Z,7.80
2023-04-16T04:28:50.601Z,8.48
2023-04-16T04:31:55.264Z,7.82
2023-04-16T04:35:01.448Z,6.03
2023-04-16T04:38:04.242Z,5.43
2023-04-16T04:41:06.811Z,4.10
2023-04-16T04:44:12.130Z,3.85
2023-04-16T04:47:15.491Z,3.83
2023-04-16T04:50:18.320Z,4.43
2023-04-16T04:53:20.800Z,4.90
2023-04-16T04:56:23.718Z,5.28
2023-04-16T04:59:26.788Z,5.55
2023-04-16T05:02:29.387Z,6.10
2023-04-16T05:05:32.231Z,7.05
2023-04-16T05:08:34.742Z,5.75
2023-04-16T05:11:42.080Z,5.07
2023-04-16T05:14:44.449Z,5.60
2023-04-16T05:17:46.889Z,5.28
2023-04-16T05:20:49.266Z,5.90
2023-04-16T05:23:52.148Z,5.40
2023-04-16T05:26:54.563Z,5.60
2023-04-16T05:29:56.943Z,6.43
2023-04-16T05:32:59.403Z,5.97
2023-04-16T05:36:01.861Z,5.10
2023-04-16T05:39:04.307Z,5.40
2023-04-16T05:42:06.705Z,4.93
2023-04-16T05:45:09.535Z,4.72
2023-04-16T05:48:12.473Z,4.93
2023-04-16T05:51:14.834Z,4.73
2023-04-16T05:54:17.276Z,4.32
2023-04-16T05:57:19.604Z,4.00
2023-04-16T06:00:22.224Z,4.13
2023-04-16T06:03:24.721Z,4.22
2023-04-16T06:06:27.736Z,4.55
2023-04-16T06:09:30.570Z,3.35
2023-04-16T06:12:33.298Z,3.60
2023-04-16T06:15:35.736Z,3.10
2023-04-16T06:18:38.397Z,2.85
2023-04-16T06:21:44.623Z,3.40
2023-04-16T06:24:47.101Z,3.00
2023-04-16T06:27:49.667Z,3.60
2023-04-16T06:30:52.188Z,3.25
2023-04-16T06:33:54.891Z,3.10
2023-04-16T06:36:57.338Z,3.35
2023-04-16T06:39:59.755Z,3.05
2023-04-16T06:43:02.116Z,2.57
2023-04-16T06:46:04.558Z,2.35
2023-04-16T06:49:07.458Z,2.88
2023-04-16T06:52:09.914Z,3.10
2023-04-16T06:55:12.345Z,3.17
2023-04-16T06:58:14.784Z,3.28
2023-04-16T07:01:18.230Z,3.15
2023-04-16T07:04:21.215Z,2.88
2023-04-16T07:07:23.959Z,3.00
2023-04-16T07:10:26.321Z,2.95
2023-04-16T07:13:28.717Z,3.40
2023-04-16T07:16:31.506Z,4.13
2023-04-16T07:19:34.058Z,3.22
2023-04-16T07:22:36.527Z,3.40
2023-04-16T07:25:38.863Z,3.70
2023-04-16T07:28:41.618Z,4.05
2023-04-16T07:31:45.443Z,3.97
2023-04-16T07:34:48.331Z,3.58
2023-04-16T07:37:50.912Z,3.40
2023-04-16T07:40:53.410Z,3.10
2023-04-16T07:43:55.877Z,3.40
2023-04-16T07:46:58.257Z,3.83
2023-04-16T07:50:00.670Z,3.53
2023-04-16T07:53:03.657Z,3.00
2023-04-16T07:56:06.409Z,2.90
2023-04-16T08:02:17.735Z,2.20
2023-04-16T08:05:20.447Z,2.30
2023-04-16T08:08:23.006Z,1.90
2023-04-16T08:11:25.444Z,1.75
2023-04-16T08:14:28.015Z,1.70
2023-04-16T08:17:30.460Z,1.90
2023-04-16T08:20:33.183Z,2.00
2023-04-16T08:23:36.011Z,2.10
2023-04-16T08:26:38.529Z,1.92
2023-04-16T08:29:41.081Z,1.80
2023-04-16T08:32:43.799Z,2.22
2023-04-16T08:35:46.301Z,1.70
2023-04-16T08:38:48.698Z,2.17
2023-04-16T08:41:54.368Z,2.03
2023-04-16T08:45:07.290Z,2.07
2023-04-16T08:48:11.946Z,2.35
2023-04-16T08:51:17.250Z,1.90
2023-04-16T08:54:34.759Z,2.10
2023-04-16T08:57:48.886Z,1.83
2023-04-16T09:00:52.251Z,1.80
2023-04-16T09:03:55.345Z,1.40
2023-04-16T09:06:58.999Z,1.95
2023-04-16T09:10:02.012Z,2.03
2023-04-16T09:13:04.561Z,1.63
2023-04-16T09:16:08.857Z,7.00
2023-04-16T09:19:11.528Z,3.58
2023-04-16T09:22:14.413Z,2.30
2023-04-16T09:25:17.395Z,1.73
2023-04-16T09:28:38.779Z,1.20
2023-04-16T09:31:41.665Z,1.70
2023-04-16T09:35:00.791Z,3.60
2023-04-16T09:38:10.788Z,1.35
2023-04-16T09:41:16.594Z,2.08
2023-04-16T09:44:19.002Z,1.60
2023-04-16T09:47:22.547Z,1.67
2023-04-16T09:50:26.500Z,1.83
2023-04-16T09:53:30.907Z,1.80
2023-04-16T09:56:33.763Z,2.60
2023-04-16T09:59:36.522Z,16.05
2023-04-16T10:02:42.701Z,1.80
2023-04-16T10:05:45.436Z,1.65
2023-04-16T10:08:50.295Z,9.80
2023-04-16T10:11:53.317Z,6.75
2023-04-16T10:14:56.046Z,12.02
2023-04-16T10:18:00.286Z,8.33
2023-04-16T10:21:03.099Z,1.83
2023-04-16T10:24:06.173Z,1.75
2023-04-16T10:27:08.488Z,2.00
2023-04-16T10:30:11.726Z,1.80
2023-04-16T10:33:14.712Z,1.75
2023-04-16T10:36:23.808Z,1.52
2023-04-16T10:39:29.170Z,1.70
2023-04-16T10:42:31.843Z,1.45
2023-04-16T10:45:39.999Z,1.02
2023-04-16T10:48:49.773Z,1.00
2023-04-16T10:51:56.754Z,1.25
2023-04-16T10:54:59.760Z,1.40
2023-04-16T10:58:02.158Z,1.47
2023-04-16T11:01:16.454Z,1.33
2023-04-16T11:04:22.052Z,1.30
2023-04-16T11:07:35.175Z,1.45
2023-04-16T11:10:39.556Z,1.50
2023-04-16T11:13:45.973Z,1.73
2023-04-16T11:16:48.794Z,1.52
2023-04-16T11:19:53.732Z,1.20
2023-04-16T11:22:57.687Z,1.17
2023-04-16T11:26:00.964Z,1.73
2023-04-16T11:29:14.871Z,2.17
2023-04-16T11:32:23.353Z,1.70
2023-04-16T11:35:25.913Z,1.08
2023-04-16T11:38:38.566Z,1.20
2023-04-16T11:41:45.922Z,1.10
2023-04-16T11:45:00.652Z,1.15
2023-04-16T11:48:03.248Z,1.15
2023-04-16T11:51:05.685Z,1.17
2023-04-16T11:54:11.129Z,1.25
2023-04-16T11:57:14.369Z,1.10
2023-04-16T12:00:17.112Z,0.80
2023-04-16T12:03:37.572Z,0.85
2023-04-16T12:06:40.223Z,0.90
2023-04-16T12:09:44.836Z,1.00
2023-04-16T12:12:47.367Z,1.35
2023-04-16T12:15:51.747Z,0.75
2023-04-16T12:19:03.864Z,1.10
2023-04-16T12:22:06.639Z,0.87
2023-04-16T12:25:16.352Z,1.27
2023-04-16T12:28:35.175Z,2.38
2023-04-16T12:31:38.221Z,1.17
2023-04-16T12:34:51.443Z,0.98
2023-04-16T12:37:53.898Z,0.93
2023-04-16T12:40:57.645Z,1.45
2023-04-16T12:44:18.260Z,1.20
2023-04-16T12:47:20.831Z,3.72
2023-04-16T12:50:23.252Z,2.03
2023-04-16T12:53:26.136Z,1.00
2023-04-16T12:56:28.762Z,1.63
2023-04-16T12:59:31.344Z,1.27
2023-04-16T13:02:34.367Z,1.20
2023-04-16T13:05:36.990Z,1.38
2023-04-16T13:08:40.346Z,0.70
2023-04-16T13:11:42.837Z,0.85
2023-04-16T13:14:45.827Z,4.07
2023-04-16T13:17:48.496Z,1.00
2023-04-16T13:20:50.978Z,2.60
2023-04-16T13:23:54.094Z,1.10
2023-04-16T13:26:56.902Z,3.05
2023-04-16T13:29:59.740Z,3.17
2023-04-16T13:33:02.570Z,3.40
2023-04-16T13:36:05.544Z,2.08
2023-04-16T13:39:11.557Z,1.90
2023-04-16T13:42:14.453Z,1.88
2023-04-16T13:45:17.227Z,1.00
2023-04-16T13:48:19.627Z,1.42
2023-04-16T13:51:22.643Z,0.80
2023-04-16T13:54:25.438Z,1.23
2023-04-16T13:57:28.841Z,1.25
2023-04-16T14:00:32.290Z,1.50
2023-04-16T14:03:36.379Z,1.67
2023-04-16T14:06:38.870Z,6.60
2023-04-16T14:09:41.722Z,1.77
2023-04-16T14:12:45.657Z,0.82
2023-04-16T14:15:48.083Z,1.40
2023-04-16T14:18:51.971Z,5.53
2023-04-16T14:21:54.638Z,1.67
2023-04-16T14:24:57.026Z,1.90
2023-04-16T14:28:00.744Z,3.63
2023-04-16T14:31:03.405Z,1.42
2023-04-16T14:34:06.138Z,3.90
2023-04-16T14:37:08.798Z,2.40
2023-04-16T14:40:12.360Z,5.88
2023-04-16T14:43:14.976Z,2.28
2023-04-16T14:46:17.875Z,3.85
2023-04-16T14:49:20.822Z,3.20
2023-04-16T14:52:23.941Z,3.00
2023-04-16T14:55:26.449Z,0.60
2023-04-16T14:58:28.840Z,0.52
2023-04-16T15:01:32.739Z,2.00
2023-04-16T15:04:35.328Z,1.23
2023-04-16T15:07:38.060Z,1.15
2023-04-16T15:10:42.529Z,1.88
2023-04-16T15:13:44.948Z,1.35
2023-04-16T15:16:48.581Z,1.08
2023-04-16T15:19:52.204Z,1.83
2023-04-16T15:22:54.820Z,1.80
2023-04-16T15:25:57.769Z,0.83
2023-04-16T15:29:00.513Z,1.10
2023-04-16T15:32:03.191Z,1.00
2023-04-16T15:35:06.228Z,0.67
2023-04-16T15:38:08.713Z,0.90
2023-04-16T15:41:11.133Z,1.10
2023-04-16T15:44:13.649Z,1.10
2023-04-16T15:47:16.325Z,1.00
2023-04-16T15:50:20.006Z,0.85
2023-04-16T15:53:22.677Z,1.50
2023-04-16T15:56:25.682Z,0.60
2023-04-16T15:59:28.030Z,1.00
2023-04-16T16:02:30.900Z,0.68
2023-04-16T16:05:33.813Z,0.80
2023-04-16T16:08:38.196Z,0.75
2023-04-16T16:11:41.700Z,0.77
2023-04-16T16:14:44.628Z,0.60
2023-04-16T16:17:47.270Z,0.70
2023-04-16T16:20:50.036Z,0.88
2023-04-16T16:23:53.369Z,0.80
2023-04-16T16:26:56.810Z,0.70
2023-04-16T16:30:01.073Z,0.70
2023-04-16T16:33:03.831Z,0.80
2023-04-16T16:36:10.866Z,1.10
2023-04-16T16:39:13.461Z,0.70
2023-04-16T16:42:18.729Z,0.80
2023-04-16T16:45:21.471Z,1.20
2023-04-16T16:48:24.065Z,1.52
2023-04-16T16:51:27.747Z,1.17
2023-04-16T16:54:30.293Z,0.90
2023-04-16T16:57:32.916Z,1.00
2023-04-16T17:00:36.133Z,1.00
2023-04-16T17:03:38.787Z,0.80
2023-04-16T17:06:41.791Z,0.80
2023-04-16T17:09:46.228Z,1.30
2023-04-16T17:12:51.068Z,0.70
2023-04-16T17:15:53.454Z,1.02
2023-04-16T17:18:56.434Z,1.02
2023-04-16T17:21:59.461Z,0.80
2023-04-16T17:25:02.294Z,0.77
2023-04-16T17:28:05.170Z,1.00
2023-04-16T17:31:08.507Z,0.93
2023-04-16T17:34:11.672Z,0.90
2023-04-16T17:37:14.597Z,1.23
2023-04-16T17:40:18.482Z,1.05
2023-04-16T17:43:21.281Z,0.43
2023-04-16T17:46:24.076Z,0.65
2023-04-16T17:49:26.777Z,0.85
2023-04-16T17:52:29.697Z,0.70
2023-04-16T17:55:32.093Z,0.50
2023-04-16T17:58:35.394Z,0.50
2023-04-16T18:01:38.737Z,0.50
2023-04-16T18:04:42.048Z,0.38
2023-04-16T18:07:46.949Z,0.40
2023-04-16T18:10:49.676Z,0.40
2023-04-16T18:13:53.868Z,0.80
2023-04-16T18:16:56.599Z,0.65
2023-04-16T18:19:59.107Z,0.77
2023-04-16T18:23:02.646Z,0.65
2023-04-16T18:26:07.643Z,1.02
2023-04-16T18:29:12.407Z,0.53
2023-04-16T18:32:16.385Z,0.88
2023-04-16T18:35:19.331Z,0.45
2023-04-16T18:38:22.045Z,0.40
2023-04-16T18:41:24.796Z,0.47
2023-04-16T18:44:27.432Z,0.40
2023-04-16T18:47:30.291Z,0.82
2023-04-16T18:50:32.999Z,0.63
2023-04-16T18:53:36.039Z,0.82
2023-04-16T18:56:38.733Z,1.00
2023-04-16T18:59:41.332Z,0.73
2023-04-16T19:02:44.389Z,0.90
2023-04-16T19:05:47.418Z,0.93
2023-04-16T19:08:50.705Z,1.00
2023-04-16T19:11:54.278Z,0.95
2023-04-16T19:14:57.016Z,0.93
2023-04-16T19:17:59.657Z,1.70
2023-04-16T19:21:03.394Z,1.17
2023-04-16T19:24:06.112Z,1.10
2023-04-16T19:27:08.790Z,1.70
2023-04-16T19:30:11.734Z,1.60
2023-04-16T19:33:14.607Z,1.63
2023-04-16T19:36:18.762Z,1.63
2023-04-16T19:39:21.476Z,1.63
2023-04-16T19:42:24.322Z,1.70
2023-04-16T19:45:27.745Z,2.20
2023-04-16T19:48:31.782Z,2.38
2023-04-16T19:51:34.808Z,2.38
2023-04-16T19:54:38.562Z,2.00
2023-04-16T19:57:41.409Z,1.92
2023-04-16T20:00:44.303Z,2.07
2023-04-16T20:03:47.127Z,2.45
2023-04-16T20:06:49.815Z,2.03
2023-04-16T20:09:53.137Z,2.33
2023-04-16T20:12:56.009Z,2.08
2023-04-16T20:15:58.694Z,2.28
2023-04-16T20:19:04.151Z,2.10
2023-04-16T20:22:07.772Z,2.20
2023-04-16T20:25:11.462Z,1.70
2023-04-16T20:28:21.157Z,2.45
2023-04-16T20:31:23.692Z,2.20
2023-04-16T20:34:27.799Z,2.78
2023-04-16T20:37:31.253Z,2.60
2023-04-16T20:40:34.163Z,2.60
2023-04-16T20:43:44.079Z,2.85
2023-04-16T20:46:49.781Z,2.75
2023-04-16T20:49:52.919Z,2.95
2023-04-16T20:52:55.428Z,3.28
2023-04-16T20:55:58.318Z,2.90
2023-04-16T20:59:00.998Z,3.28
2023-04-16T21:02:04.023Z,2.93
2023-04-16T21:05:10.267Z,3.53
2023-04-16T21:08:12.722Z,3.63
2023-04-16T21:11:15.161Z,3.50
2023-04-16T21:14:17.582Z,3.83
2023-04-16T21:17:20.024Z,3.40
2023-04-16T21:20:22.806Z,3.70
2023-04-16T21:23:25.285Z,3.55
2023-04-16T21:26:27.666Z,3.55
2023-04-16T21:29:30.418Z,3.72
2023-04-16T21:32:33.065Z,3.33
2023-04-16T21:35:35.525Z,3.83
2023-04-16T21:38:38.007Z,3.60
2023-04-16T21:41:40.431Z,4.33
2023-04-16T21:44:42.786Z,3.80
2023-04-16T21:47:45.125Z,3.97
2023-04-16T21:50:47.501Z,3.90
2023-04-16T21:53:50.336Z,3.97
2023-04-16T21:56:52.835Z,3.95
2023-04-16T21:59:55.204Z,3.83
2023-04-16T22:03:00.426Z,3.83
2023-04-16T22:06:03.322Z,4.07
2023-04-16T22:09:06.652Z,3.90
2023-04-16T22:12:10.509Z,4.27
2023-04-16T22:15:13.925Z,4.35
2023-04-16T22:18:16.326Z,4.25
2023-04-16T22:21:19.032Z,4.30
2023-04-16T22:24:21.391Z,3.50
2023-04-16T22:27:23.815Z,4.55
2023-04-16T22:30:26.222Z,4.43
2023-04-16T22:33:31.496Z,4.27
2023-04-16T22:36:33.890Z,4.20
2023-04-16T22:39:36.837Z,4.63
2023-04-16T22:42:39.296Z,4.20
2023-04-16T22:45:43.103Z,3.80
2023-04-16T22:48:45.906Z,4.18
2023-04-16T22:51:48.358Z,3.97
2023-04-16T22:54:51.231Z,4.60
2023-04-16T22:57:53.667Z,4.10
2023-04-16T23:00:59.418Z,4.00
2023-04-16T23:04:02.245Z,3.47
2023-04-16T23:07:04.745Z,3.72
2023-04-16T23:10:08.660Z,3.53
2023-04-16T23:13:11.442Z,3.87
2023-04-16T23:16:13.871Z,3.20
2023-04-16T23:19:16.379Z,3.53
2023-04-16T23:22:18.782Z,3.72
2023-04-16T23:25:22.511Z,3.97
2023-04-16T23:28:24.918Z,3.88
2023-04-16T23:31:27.375Z,3.33
2023-04-16T23:34:29.925Z,3.43
2023-04-16T23:37:32.419Z,3.67
2023-04-16T23:40:34.974Z,3.20
2023-04-16T23:43:40.025Z,3.60
2023-04-16T23:46:42.528Z,3.47
2023-04-16T23:49:45.179Z,3.50
2023-04-16T23:52:47.736Z,3.30
2023-04-16T23:55:50.214Z,3.40
2023-04-16T23:58:52.660Z,3.53
